Woodville, Louisiana
Current Conditions -  °F | °C
As of 5:15 AM on Wednesday 26 Nov 2014 (Local Time) from KRSN Reporting Station
Clear Clear  
Wind Chill: 34°   Ceiling: Unl
Heat Index: 38°   Visibility: 10mi
Dew Point: 35°   Wind: 6mph
Humidity: 87%   Direction: 220°SW
Pressure: 30.17"   Gusts: NA
Location:  32.5075°N, 92.6828°W
Report Text: KRSN 261115Z AUTO 22005KT 10SM CLR 04/02 A3017 RMK AO2 T00350015
Loading
Personal Weather Stations






























Interactive Weather Map New forecast layout! Learn more

10-Day Weather Forecast

Advertisements
Track Severe Weather on mobile